createdAt,value
2018-11-14T00:01:59.234Z,14.74
2018-11-14T00:04:34.233Z,14.54
2018-11-14T00:07:07.038Z,14.50
2018-11-14T00:09:38.258Z,14.78
2018-11-14T00:12:12.950Z,14.88
2018-11-14T00:14:44.987Z,14.86
2018-11-14T00:17:21.109Z,14.69
2018-11-14T00:19:52.828Z,14.42
2018-11-14T00:22:29.228Z,14.12
2018-11-14T00:25:08.586Z,13.85
2018-11-14T00:27:43.437Z,13.69
2018-11-14T00:30:26.825Z,13.77
2018-11-14T00:33:03.595Z,13.92
2018-11-14T00:35:37.709Z,14.03
2018-11-14T00:38:13.766Z,14.19
2018-11-14T00:40:48.814Z,14.22
2018-11-14T00:43:20.203Z,14.17
2018-11-14T00:46:02.308Z,14.16
2018-11-14T00:48:37.370Z,14.12
2018-11-14T00:51:09.397Z,14.04
2018-11-14T00:53:47.713Z,14.05
2018-11-14T00:56:22.682Z,13.74
2018-11-14T00:58:55.511Z,13.77
2018-11-14T01:01:29.927Z,13.51
2018-11-14T01:04:07.096Z,13.45
2018-11-14T01:06:41.923Z,13.58
2018-11-14T01:09:15.117Z,12.99
2018-11-14T01:11:47.121Z,13.70
2018-11-14T01:14:21.534Z,13.66
2018-11-14T01:16:59.658Z,13.44
2018-11-14T01:19:32.931Z,13.49
2018-11-14T01:22:10.494Z,13.32
2018-11-14T01:24:48.193Z,13.36
2018-11-14T01:27:19.929Z,12.70
2018-11-14T01:29:52.636Z,13.42
2018-11-14T01:32:29.599Z,13.34
2018-11-14T01:35:12.188Z,13.26
2018-11-14T01:37:46.346Z,13.27
2018-11-14T01:40:23.496Z,13.24
2018-11-14T01:43:00.084Z,13.18
2018-11-14T01:45:33.296Z,13.25
2018-11-14T01:48:07.332Z,13.07
2018-11-14T01:50:39.700Z,13.11
2018-11-14T01:53:11.771Z,13.15
2018-11-14T01:55:48.926Z,13.23
2018-11-14T01:58:20.860Z,12.61
2018-11-14T02:00:53.743Z,13.10
2018-11-14T02:03:28.718Z,12.87
2018-11-14T02:06:01.385Z,12.94
2018-11-14T02:08:35.207Z,13.10
2018-11-14T02:11:07.839Z,13.11
2018-11-14T02:13:46.461Z,13.10
2018-11-14T02:16:22.946Z,13.20
2018-11-14T02:18:58.137Z,13.15
2018-11-14T02:21:34.139Z,13.29
2018-11-14T02:24:10.778Z,13.36
2018-11-14T02:26:46.525Z,13.47
2018-11-14T02:29:19.399Z,13.47
2018-11-14T02:32:00.551Z,13.45
2018-11-14T02:40:46.738Z,13.54
2018-11-14T02:43:31.110Z,13.50
2018-11-14T02:51:43.939Z,13.02
2018-11-14T02:54:33.100Z,13.29
2018-11-14T02:57:17.271Z,12.64
2018-11-14T02:59:55.630Z,13.17
2018-11-14T03:02:45.661Z,13.31
2018-11-14T03:08:06.560Z,13.64
2018-11-14T03:10:42.371Z,13.69
2018-11-14T03:13:33.145Z,13.83
2018-11-14T03:45:29.323Z,13.60
2018-11-14T03:51:01.775Z,13.36
2018-11-14T03:53:42.424Z,13.28
2018-11-14T03:56:30.846Z,13.32
2018-11-14T03:59:14.326Z,13.22
2018-11-14T04:13:03.657Z,13.20
2018-11-14T04:15:38.413Z,13.12
2018-11-14T04:18:13.051Z,13.14
2018-11-14T04:20:51.176Z,13.06
2018-11-14T04:23:33.181Z,12.93
2018-11-14T04:26:16.582Z,13.07
2018-11-14T04:29:08.810Z,13.02
2018-11-14T04:32:06.928Z,13.02
2018-11-14T04:37:54.638Z,12.96
2018-11-14T04:40:56.578Z,12.98
2018-11-14T04:44:16.370Z,13.02
2018-11-14T04:53:03.944Z,13.03
2018-11-14T05:08:56.663Z,13.64
2018-11-14T05:11:28.245Z,13.82
2018-11-14T05:14:05.130Z,13.87
2018-11-14T05:16:38.286Z,13.78
2018-11-14T05:19:18.635Z,13.98
2018-11-14T05:21:55.930Z,14.32
2018-11-14T05:24:34.508Z,14.69
2018-11-14T05:27:12.491Z,14.74
2018-11-14T05:29:54.634Z,14.94
2018-11-14T05:32:27.264Z,15.17
2018-11-14T05:35:06.515Z,15.19
2018-11-14T05:37:41.636Z,15.23
2018-11-14T05:40:21.341Z,15.21
2018-11-14T05:42:59.541Z,15.16
2018-11-14T05:45:35.998Z,14.99
2018-11-14T05:48:10.014Z,14.71
2018-11-14T05:50:55.643Z,14.60
2018-11-14T05:53:35.752Z,14.52
2018-11-14T05:56:10.022Z,14.36
2018-11-14T05:58:42.832Z,14.25
2018-11-14T06:01:24.826Z,13.51
2018-11-14T06:04:04.341Z,14.07
2018-11-14T06:06:39.069Z,14.01
2018-11-14T06:09:17.857Z,13.99
2018-11-14T06:11:52.382Z,13.89
2018-11-14T06:14:24.846Z,13.91
2018-11-14T06:17:01.899Z,13.95
2018-11-14T06:19:37.983Z,13.92
2018-11-14T06:22:12.443Z,13.81
2018-11-14T06:24:48.887Z,13.91
2018-11-14T06:27:25.544Z,14.12
2018-11-14T06:30:01.989Z,14.16
2018-11-14T06:32:38.658Z,14.26
2018-11-14T06:35:12.717Z,14.45
2018-11-14T06:37:54.949Z,14.62
2018-11-14T06:40:31.785Z,14.51
2018-11-14T06:43:09.847Z,14.41
2018-11-14T06:45:46.158Z,14.30
2018-11-14T06:48:23.235Z,14.17
2018-11-14T06:50:56.608Z,14.02
2018-11-14T06:53:38.526Z,13.88
2018-11-14T06:56:13.898Z,13.81
2018-11-14T06:58:51.518Z,13.67
2018-11-14T07:01:27.376Z,13.59
2018-11-14T07:04:03.736Z,13.54
2018-11-14T07:06:43.859Z,13.63
2018-11-14T07:09:20.128Z,14.06
2018-11-14T07:11:55.301Z,14.47
2018-11-14T07:14:34.729Z,14.46
2018-11-14T07:17:10.599Z,14.25
2018-11-14T07:19:48.693Z,14.24
2018-11-14T07:22:26.342Z,14.44
2018-11-14T07:25:05.778Z,14.34
2018-11-14T07:27:48.552Z,14.26
2018-11-14T07:30:27.040Z,14.16
2018-11-14T07:33:07.814Z,14.35
2018-11-14T07:35:42.106Z,14.50
2018-11-14T07:38:38.293Z,14.49
2018-11-14T07:41:12.780Z,14.62
2018-11-14T07:43:48.598Z,14.68
2018-11-14T07:46:23.370Z,15.03
2018-11-14T07:49:00.675Z,15.06
2018-11-14T07:51:58.652Z,15.43
2018-11-14T07:54:39.311Z,15.64
2018-11-14T07:57:13.538Z,15.58
2018-11-14T07:59:52.449Z,15.63
2018-11-14T08:02:22.211Z,16.03
2018-11-14T08:04:51.970Z,16.29
2018-11-14T08:07:22.128Z,16.45
2018-11-14T08:10:02.243Z,16.42
2018-11-14T08:12:33.050Z,16.62
2018-11-14T08:15:07.703Z,16.58
2018-11-14T08:17:42.092Z,16.73
2018-11-14T08:20:15.937Z,16.68
2018-11-14T08:22:53.402Z,16.47
2018-11-14T08:25:28.723Z,16.68
2018-11-14T08:28:05.934Z,16.57
2018-11-14T08:30:46.577Z,16.76
2018-11-14T08:36:42.227Z,17.01
2018-11-14T08:39:16.927Z,16.64
2018-11-14T08:41:52.861Z,16.97
2018-11-14T08:44:26.463Z,17.01
2018-11-14T08:47:00.010Z,16.12
2018-11-14T08:49:34.909Z,16.72
2018-11-14T08:52:10.321Z,16.64
2018-11-14T08:54:47.645Z,16.49
2018-11-14T08:57:20.659Z,16.52
2018-11-14T08:59:56.935Z,16.49
2018-11-14T09:02:32.170Z,16.36
2018-11-14T09:05:12.838Z,16.37
2018-11-14T09:07:48.241Z,16.53
2018-11-14T09:10:26.925Z,16.75
2018-11-14T09:13:04.639Z,17.00
2018-11-14T09:15:49.565Z,16.94
2018-11-14T09:18:27.297Z,17.14
2018-11-14T09:21:08.759Z,17.02
2018-11-14T09:23:44.292Z,17.00
2018-11-14T09:26:19.598Z,16.99
2018-11-14T09:28:59.151Z,16.75
2018-11-14T09:31:34.191Z,16.88
2018-11-14T09:34:11.334Z,16.84
2018-11-14T09:37:04.326Z,17.00
2018-11-14T09:39:58.539Z,16.80
2018-11-14T09:45:56.452Z,17.22
2018-11-14T09:48:36.082Z,17.35
2018-11-14T09:51:11.145Z,17.59
2018-11-14T09:53:54.797Z,17.75
2018-11-14T09:56:27.890Z,17.74
2018-11-14T09:59:01.843Z,17.71
2018-11-14T10:05:11.675Z,17.77
2018-11-14T10:07:45.472Z,17.76
2018-11-14T10:10:19.419Z,17.68
2018-11-14T10:12:53.667Z,17.60
2018-11-14T10:15:28.968Z,17.50
2018-11-14T10:18:04.330Z,17.52
2018-11-14T10:20:38.956Z,17.51
2018-11-14T10:23:22.294Z,17.41
2018-11-14T10:25:59.031Z,17.26
2018-11-14T10:28:31.787Z,17.40
2018-11-14T10:31:05.389Z,17.65
2018-11-14T10:33:41.655Z,17.89
2018-11-14T10:36:17.242Z,18.07
2018-11-14T10:38:51.345Z,18.13
2018-11-14T10:41:28.341Z,18.06
2018-11-14T10:44:07.286Z,18.01
2018-11-14T10:46:42.333Z,18.11
2018-11-14T10:49:16.626Z,18.13
2018-11-14T10:51:54.901Z,18.22
2018-11-14T10:54:32.375Z,18.11
2018-11-14T10:57:11.956Z,18.23
2018-11-14T10:59:46.175Z,18.23
2018-11-14T11:02:25.240Z,18.25
2018-11-14T11:05:03.995Z,18.33
2018-11-14T11:07:44.230Z,18.32
2018-11-14T11:10:22.267Z,18.19
2018-11-14T11:13:03.488Z,18.03
2018-11-14T11:15:40.255Z,17.93
2018-11-14T11:18:20.320Z,17.81
2018-11-14T11:20:55.492Z,17.88
2018-11-14T11:23:29.733Z,17.90
2018-11-14T11:26:05.932Z,17.94
2018-11-14T11:28:42.958Z,17.84
2018-11-14T11:31:19.879Z,17.79
2018-11-14T11:33:54.773Z,17.76
2018-11-14T11:36:30.373Z,17.92
2018-11-14T11:39:07.172Z,17.72
2018-11-14T11:41:42.274Z,17.77
2018-11-14T11:44:21.444Z,17.72
2018-11-14T11:46:55.371Z,17.44
2018-11-14T11:49:34.656Z,17.85
2018-11-14T11:52:11.806Z,17.98
2018-11-14T11:54:53.613Z,18.01
2018-11-14T11:57:36.269Z,17.87
2018-11-14T12:00:26.658Z,17.89
2018-11-14T12:03:03.703Z,17.70
2018-11-14T12:05:41.456Z,17.58
2018-11-14T12:08:20.146Z,17.67
2018-11-14T12:10:56.935Z,17.71
2018-11-14T12:16:19.293Z,17.99
2018-11-14T12:18:56.324Z,17.80
2018-11-14T12:21:34.961Z,17.79
2018-11-14T12:24:12.754Z,17.76
2018-11-14T12:26:52.305Z,17.72
2018-11-14T12:32:06.546Z,17.90
2018-11-14T12:34:41.777Z,18.06
2018-11-14T12:37:18.138Z,18.03
2018-11-14T12:39:58.702Z,17.98
2018-11-14T12:42:36.489Z,18.06
2018-11-14T12:45:12.998Z,18.11
2018-11-14T12:47:52.060Z,17.96
2018-11-14T12:50:28.711Z,17.73
2018-11-14T12:53:15.979Z,17.70
2018-11-14T12:55:49.627Z,17.76
2018-11-14T12:58:24.354Z,17.78
2018-11-14T13:01:03.530Z,17.73
2018-11-14T13:06:19.646Z,17.89
2018-11-14T13:08:55.285Z,17.92
2018-11-14T13:11:30.674Z,17.88
2018-11-14T13:14:04.093Z,17.82
2018-11-14T13:16:39.396Z,17.95
2018-11-14T13:19:16.944Z,17.29
2018-11-14T13:21:51.949Z,18.04
2018-11-14T13:24:30.302Z,17.37
2018-11-14T13:27:04.258Z,17.98
2018-11-14T13:29:41.529Z,17.95
2018-11-14T13:32:23.591Z,17.99
2018-11-14T13:35:01.182Z,18.03
2018-11-14T13:37:35.887Z,17.84
2018-11-14T13:40:13.508Z,17.86
2018-11-14T13:42:50.438Z,17.83
2018-11-14T13:45:31.356Z,17.68
2018-11-14T13:48:12.270Z,17.68
2018-11-14T13:50:46.444Z,17.53
2018-11-14T13:53:21.803Z,17.47
2018-11-14T13:55:55.547Z,17.48
2018-11-14T13:58:31.357Z,17.57
2018-11-14T14:01:09.883Z,17.76
2018-11-14T14:03:45.610Z,17.72
2018-11-14T14:06:20.218Z,17.66
2018-11-14T14:09:01.376Z,17.58
2018-11-14T14:11:39.231Z,17.00
2018-11-14T14:14:22.091Z,17.55
2018-11-14T14:16:58.417Z,17.65
2018-11-14T14:19:35.628Z,17.70
2018-11-14T14:22:09.612Z,17.32
2018-11-14T14:24:58.560Z,17.83
2018-11-14T14:27:38.560Z,17.76
2018-11-14T14:30:24.528Z,17.72
2018-11-14T14:33:01.255Z,17.77
2018-11-14T14:35:33.905Z,17.74
2018-11-14T14:44:07.702Z,17.81
2018-11-14T14:46:43.371Z,17.81
2018-11-14T14:49:17.429Z,17.87
2018-11-14T14:51:58.028Z,17.79
2018-11-14T14:54:31.503Z,17.88
2018-11-14T14:57:07.348Z,17.81
2018-11-14T14:59:43.431Z,17.79
2018-11-14T15:02:20.692Z,17.77
2018-11-14T15:04:56.112Z,17.76
2018-11-14T15:07:31.671Z,17.75
2018-11-14T15:10:11.809Z,17.75
2018-11-14T15:12:46.374Z,17.71
2018-11-14T15:15:30.326Z,17.68
2018-11-14T15:18:04.309Z,17.56
2018-11-14T15:20:38.721Z,17.16
2018-11-14T15:23:15.108Z,17.54
2018-11-14T15:25:54.861Z,17.50
2018-11-14T15:28:29.789Z,17.51
2018-11-14T15:31:07.085Z,17.51
2018-11-14T15:33:42.664Z,17.39
2018-11-14T15:36:18.486Z,17.22
2018-11-14T15:38:54.831Z,16.98
2018-11-14T15:41:30.358Z,16.96
2018-11-14T15:44:08.998Z,16.76
2018-11-14T15:46:46.819Z,16.93
2018-11-14T15:52:10.515Z,16.78
2018-11-14T15:54:55.402Z,16.46
2018-11-14T15:57:32.393Z,16.29
2018-11-14T16:00:13.955Z,16.63
2018-11-14T16:02:48.280Z,16.28
2018-11-14T16:05:24.758Z,16.16
2018-11-14T16:08:01.128Z,16.24
2018-11-14T16:13:19.372Z,16.11
2018-11-14T16:15:53.836Z,15.86
2018-11-14T16:18:34.089Z,16.03
2018-11-14T16:21:07.944Z,15.97
2018-11-14T16:23:43.877Z,15.78
2018-11-14T16:26:16.003Z,15.76
2018-11-14T16:28:59.511Z,15.72
2018-11-14T16:31:32.542Z,15.63
2018-11-14T16:34:09.553Z,15.52
2018-11-14T16:36:50.617Z,15.53
2018-11-14T16:39:24.697Z,15.63
2018-11-14T16:41:58.339Z,15.64
2018-11-14T16:44:30.141Z,15.76
2018-11-14T16:47:04.649Z,15.74
2018-11-14T16:49:37.926Z,16.18
2018-11-14T16:52:15.743Z,16.44
2018-11-14T16:54:50.849Z,16.51
2018-11-14T16:57:27.690Z,16.57
2018-11-14T17:00:01.745Z,16.54
2018-11-14T17:02:38.238Z,16.27
2018-11-14T17:05:17.921Z,16.31
2018-11-14T17:07:53.080Z,16.04
2018-11-14T17:10:32.870Z,16.06
2018-11-14T17:13:09.572Z,16.13
2018-11-14T17:15:45.268Z,16.16
2018-11-14T17:18:20.197Z,15.67
2018-11-14T17:20:51.534Z,15.57
2018-11-14T17:23:27.214Z,15.51
2018-11-14T17:26:06.965Z,15.52
2018-11-14T17:28:42.973Z,15.28
2018-11-14T17:31:24.555Z,15.33
2018-11-14T17:33:59.530Z,15.40
2018-11-14T17:36:40.446Z,15.43
2018-11-14T17:39:21.395Z,15.87
2018-11-14T17:41:59.135Z,15.57
2018-11-14T17:44:32.015Z,15.75
2018-11-14T17:47:03.869Z,15.64
2018-11-14T17:49:45.291Z,15.63
2018-11-14T17:52:20.739Z,15.79
2018-11-14T17:54:57.094Z,15.78
2018-11-14T17:57:34.322Z,15.76
2018-11-14T18:00:21.596Z,15.96
2018-11-14T18:03:01.819Z,15.88
2018-11-14T18:05:43.259Z,15.87
2018-11-14T18:08:17.538Z,15.98
2018-11-14T18:10:49.462Z,16.01
2018-11-14T18:13:32.728Z,16.06
2018-11-14T18:16:10.363Z,16.13
2018-11-14T18:18:49.721Z,16.15
2018-11-14T18:21:27.416Z,16.06
2018-11-14T18:24:02.305Z,16.14
2018-11-14T18:26:43.875Z,16.11
2018-11-14T18:29:17.504Z,16.17
2018-11-14T18:31:51.977Z,16.14
2018-11-14T18:34:33.342Z,16.15
2018-11-14T18:37:08.385Z,16.26
2018-11-14T18:39:51.552Z,16.24
2018-11-14T18:42:26.218Z,16.20
2018-11-14T18:45:03.230Z,16.27
2018-11-14T18:47:38.569Z,16.28
2018-11-14T18:50:16.476Z,16.36
2018-11-14T18:52:50.430Z,16.50
2018-11-14T18:55:27.328Z,16.63
2018-11-14T18:58:03.572Z,16.44
2018-11-14T19:03:17.622Z,16.04
2018-11-14T19:05:47.171Z,16.06
2018-11-14T19:08:19.842Z,16.10
2018-11-14T19:10:50.038Z,16.08
2018-11-14T19:13:20.147Z,16.16
2018-11-14T19:16:00.519Z,16.18
2018-11-14T19:18:36.647Z,16.14
2018-11-14T19:21:11.358Z,16.29
2018-11-14T19:23:49.126Z,16.16
2018-11-14T19:26:33.786Z,16.21
2018-11-14T19:29:09.893Z,16.25
2018-11-14T19:31:47.227Z,16.15
2018-11-14T19:34:24.289Z,16.40
2018-11-14T19:37:01.992Z,16.55
2018-11-14T19:39:35.410Z,16.43
2018-11-14T19:42:10.882Z,16.56
2018-11-14T19:44:46.012Z,16.57
2018-11-14T19:47:26.299Z,16.65
2018-11-14T19:49:59.698Z,16.76
2018-11-14T19:52:42.289Z,16.68
2018-11-14T19:55:22.585Z,16.78
2018-11-14T19:57:57.901Z,16.87
2018-11-14T20:00:37.434Z,16.99
2018-11-14T20:03:14.500Z,16.95
2018-11-14T20:05:47.039Z,16.88
2018-11-14T20:08:20.381Z,16.56
2018-11-14T20:10:56.413Z,16.68
2018-11-14T20:16:20.388Z,16.66
2018-11-14T20:18:55.856Z,16.72
2018-11-14T20:21:35.077Z,17.03
2018-11-14T20:24:15.938Z,16.83
2018-11-14T20:26:51.567Z,16.62
2018-11-14T20:29:32.445Z,16.53
2018-11-14T20:32:09.617Z,16.31
2018-11-14T20:34:47.351Z,16.26
2018-11-14T20:37:24.323Z,16.53
2018-11-14T20:40:02.423Z,16.39
2018-11-14T20:42:39.908Z,16.62
2018-11-14T20:45:23.483Z,16.39
2018-11-14T20:48:00.078Z,16.37
2018-11-14T20:50:37.297Z,16.69
2018-11-14T20:53:48.397Z,16.56
2018-11-14T20:56:27.283Z,16.52
2018-11-14T20:59:07.075Z,16.91
2018-11-14T21:01:41.898Z,16.42
2018-11-14T21:04:16.417Z,16.33
2018-11-14T21:06:53.000Z,16.38
2018-11-14T21:12:14.098Z,16.45
2018-11-14T21:14:45.380Z,16.30
2018-11-14T21:17:23.515Z,16.26
2018-11-14T21:20:00.142Z,16.36
2018-11-14T21:22:38.187Z,16.42
2018-11-14T21:25:26.230Z,16.42
2018-11-14T21:28:04.091Z,16.29
2018-11-14T21:30:42.943Z,16.29
2018-11-14T21:33:17.526Z,16.43
2018-11-14T21:35:55.088Z,15.71
2018-11-14T21:38:33.319Z,16.53
2018-11-14T21:41:07.901Z,16.85
2018-11-14T21:46:32.295Z,16.81
2018-11-14T21:49:12.735Z,16.53
2018-11-14T21:51:52.024Z,16.83
2018-11-14T21:54:28.436Z,16.30
2018-11-14T21:57:02.051Z,16.14
2018-11-14T22:02:16.173Z,16.02
2018-11-14T22:04:49.911Z,15.75
2018-11-14T22:07:28.951Z,15.59
2018-11-14T22:10:02.638Z,15.66
2018-11-14T22:15:15.107Z,15.79
2018-11-14T22:17:51.386Z,15.97
2018-11-14T22:20:29.995Z,15.92
2018-11-14T22:23:06.320Z,15.85
2018-11-14T22:25:41.950Z,15.70
2018-11-14T22:28:26.795Z,15.73
2018-11-14T22:31:00.270Z,15.82
2018-11-14T22:33:34.895Z,15.92
2018-11-14T22:36:07.994Z,16.39
2018-11-14T22:38:41.374Z,16.47
2018-11-14T22:41:19.821Z,16.21
2018-11-14T22:43:54.469Z,15.81
2018-11-14T22:46:29.100Z,16.11
2018-11-14T22:49:07.266Z,15.95
2018-11-14T22:51:41.398Z,15.93
2018-11-14T22:54:15.763Z,15.41
2018-11-14T22:56:53.710Z,15.16
2018-11-14T22:59:31.255Z,15.31
2018-11-14T23:02:10.380Z,15.33
2018-11-14T23:04:49.302Z,15.39
2018-11-14T23:07:24.350Z,15.55
2018-11-14T23:09:59.555Z,15.30
2018-11-14T23:12:34.423Z,15.47
2018-11-14T23:17:57.196Z,15.23
2018-11-14T23:20:33.050Z,15.45
2018-11-14T23:23:15.081Z,15.48
2018-11-14T23:25:51.919Z,15.25
2018-11-14T23:28:27.874Z,15.26
2018-11-14T23:31:02.224Z,15.09
2018-11-14T23:33:35.913Z,15.46
2018-11-14T23:36:09.861Z,14.92
2018-11-14T23:38:44.990Z,15.08
2018-11-14T23:41:23.093Z,15.73
2018-11-14T23:43:57.295Z,15.23
2018-11-14T23:46:31.217Z,15.04
2018-11-14T23:49:08.098Z,15.43
2018-11-14T23:51:40.230Z,15.00
2018-11-14T23:54:13.563Z,15.06
2018-11-14T23:56:49.615Z,15.30
2018-11-14T23:59:26.376Z,15.15
